createdAt,value
2018-01-05T00:00:33.642Z,979
2018-01-05T00:01:36.136Z,979
2018-01-05T00:02:38.920Z,979.1
2018-01-05T00:03:41.417Z,979
2018-01-05T00:04:43.922Z,979
2018-01-05T00:05:46.413Z,979
2018-01-05T00:06:48.898Z,979.1
2018-01-05T00:07:51.397Z,979.1
2018-01-05T00:08:54.183Z,979.1
2018-01-05T00:09:56.974Z,979.1
2018-01-05T00:10:59.460Z,979.1
2018-01-05T00:12:01.952Z,979
2018-01-05T00:13:04.737Z,979
2018-01-05T00:14:07.237Z,979
2018-01-05T00:15:10.018Z,979.1
2018-01-05T00:16:12.522Z,979.2
2018-01-05T00:17:15.006Z,979
2018-01-05T00:18:17.513Z,979.1
2018-01-05T00:19:20.007Z,979.1
2018-01-05T00:20:22.503Z,979.1
2018-01-05T00:21:24.994Z,979.1
2018-01-05T00:22:27.498Z,979.1
2018-01-05T00:23:29.990Z,979.1
2018-01-05T00:24:32.778Z,979.1
2018-01-05T00:25:35.554Z,979.2
2018-01-05T00:26:38.048Z,979.2
2018-01-05T00:27:40.547Z,979.1
2018-01-05T00:28:43.041Z,979.1
2018-01-05T00:29:45.532Z,979.2
2018-01-05T00:30:48.030Z,979.3
2018-01-05T00:31:50.515Z,979.2
2018-01-05T00:32:53.029Z,979.2
2018-01-05T00:33:55.518Z,979.2
2018-01-05T00:34:58.032Z,979.1
2018-01-05T00:36:00.514Z,979.1
2018-01-05T00:37:03.003Z,979.1
2018-01-05T00:38:05.503Z,979.1
2018-01-05T00:39:08.007Z,979.2
2018-01-05T00:40:10.505Z,979.1
2018-01-05T00:41:13.012Z,979.1
2018-01-05T00:42:15.506Z,979.1
2018-01-05T00:43:18.282Z,979.1
2018-01-05T00:44:20.781Z,979.1
2018-01-05T00:45:23.277Z,979.2
2018-01-05T00:46:25.779Z,979.1
2018-01-05T00:47:28.264Z,979.1
2018-01-05T00:48:30.751Z,979.2
2018-01-05T00:49:33.245Z,979.3
2018-01-05T00:50:35.744Z,979.2
2018-01-05T00:51:38.243Z,979.3
2018-01-05T00:52:40.741Z,979.3
2018-01-05T00:53:43.238Z,979.3
2018-01-05T00:54:45.726Z,979.3
2018-01-05T00:55:48.234Z,979.3
2018-01-05T00:56:50.727Z,979.3
2018-01-05T00:57:53.216Z,979.3
2018-01-05T00:58:55.721Z,979.2
2018-01-05T00:59:58.218Z,979.3
2018-01-05T01:01:00.712Z,979.3
2018-01-05T01:02:03.213Z,979.3
2018-01-05T01:03:05.704Z,979.3
2018-01-05T01:04:08.203Z,979.3
2018-01-05T01:05:10.693Z,979.3
2018-01-05T01:06:13.208Z,979.3
2018-01-05T01:07:15.997Z,979.3
2018-01-05T01:08:18.482Z,979.3
2018-01-05T01:09:20.980Z,979.3
2018-01-05T01:10:23.481Z,979.4
2018-01-05T01:11:25.973Z,979.3
2018-01-05T01:12:28.464Z,979.5
2018-01-05T01:13:30.951Z,979.3
2018-01-05T01:14:33.440Z,979.5
2018-01-05T01:15:35.956Z,979.5
2018-01-05T01:16:38.442Z,979.5
2018-01-05T01:17:40.940Z,979.7
2018-01-05T01:18:43.719Z,979.5
2018-01-05T01:19:46.207Z,979.6
2018-01-05T01:20:48.722Z,979.8
2018-01-05T01:21:51.224Z,979.7
2018-01-05T01:22:53.707Z,979.8
2018-01-05T01:23:56.208Z,979.8
2018-01-05T01:24:58.700Z,980
2018-01-05T01:26:01.488Z,980
2018-01-05T01:27:03.982Z,979.8
2018-01-05T01:28:06.466Z,979.9
2018-01-05T01:29:08.957Z,979.9
2018-01-05T01:30:11.756Z,979.9
2018-01-05T01:31:14.269Z,979.9
2018-01-05T01:32:16.768Z,980.1
2018-01-05T01:33:19.260Z,980.1
2018-01-05T01:34:21.767Z,980.1
2018-01-05T01:35:24.557Z,980
2018-01-05T01:36:27.052Z,980
2018-01-05T01:37:29.544Z,980.1
2018-01-05T01:38:32.051Z,980
2018-01-05T01:39:34.533Z,980
2018-01-05T01:40:37.026Z,980.1
2018-01-05T01:41:39.823Z,980.2
2018-01-05T01:42:42.309Z,980.2
2018-01-05T01:43:45.089Z,980.1
2018-01-05T01:44:47.587Z,980.2
2018-01-05T01:45:50.078Z,980.4
2018-01-05T01:46:52.583Z,980.4
2018-01-05T01:47:55.086Z,980.2
2018-01-05T01:48:57.558Z,980.1
2018-01-05T01:50:00.061Z,980.2
2018-01-05T01:51:02.852Z,980.2
2018-01-05T01:52:05.343Z,980.4
2018-01-05T01:53:07.848Z,980.3
2018-01-05T01:54:10.610Z,980.3
2018-01-05T01:55:13.159Z,980.3
2018-01-05T01:56:15.671Z,980.3
2018-01-05T01:57:18.203Z,980.4
2018-01-05T01:58:20.700Z,980.3
2018-01-05T01:59:23.193Z,980.4
2018-01-05T02:00:25.681Z,980.4
2018-01-05T02:01:28.186Z,980.3
2018-01-05T02:02:30.974Z,980.4
2018-01-05T02:03:33.454Z,980.3
2018-01-05T02:04:35.954Z,980.3
2018-01-05T02:05:38.734Z,980.4
2018-01-05T02:06:41.245Z,980.5
2018-01-05T02:07:43.736Z,980.4
2018-01-05T02:08:46.233Z,980.5
2018-01-05T02:09:48.726Z,980.5
2018-01-05T02:10:51.215Z,980.5
2018-01-05T02:11:53.717Z,980.6
2018-01-05T02:12:56.208Z,980.5
2018-01-05T02:13:58.694Z,980.8
2018-01-05T02:15:01.204Z,980.6
2018-01-05T02:16:03.695Z,980.6
2018-01-05T02:17:06.195Z,980.7
2018-01-05T02:18:08.685Z,980.9
2018-01-05T02:19:11.173Z,980.8
2018-01-05T02:20:13.672Z,980.8
2018-01-05T02:21:16.457Z,980.8
2018-01-05T02:22:18.947Z,980.7
2018-01-05T02:23:21.450Z,980.7
2018-01-05T02:24:24.224Z,980.8
2018-01-05T02:25:26.716Z,980.9
2018-01-05T02:26:29.212Z,980.8
2018-01-05T02:27:31.705Z,980.9
2018-01-05T02:28:34.202Z,980.9
2018-01-05T02:29:36.995Z,981
2018-01-05T02:30:39.487Z,980.9
2018-01-05T02:31:41.980Z,981
2018-01-05T02:32:44.477Z,980.9
2018-01-05T02:33:46.974Z,980.8
2018-01-05T02:34:49.456Z,980.9
2018-01-05T02:35:51.956Z,981
2018-01-05T02:36:54.445Z,980.9
2018-01-05T02:37:56.944Z,980.9
2018-01-05T02:38:59.714Z,980.9
2018-01-05T02:40:02.203Z,981
2018-01-05T02:41:04.708Z,981
2018-01-05T02:42:07.214Z,981
2018-01-05T02:43:09.705Z,981
2018-01-05T02:44:12.494Z,981.1
2018-01-05T02:45:15.591Z,981
2018-01-05T02:46:18.400Z,981.2
2018-01-05T02:47:20.882Z,981.1
2018-01-05T02:48:23.381Z,981.1
2018-01-05T02:49:25.872Z,981.1
2018-01-05T02:50:28.371Z,981.1
2018-01-05T02:51:30.866Z,981.1
2018-01-05T02:52:33.653Z,981.1
2018-01-05T02:53:36.135Z,981
2018-01-05T02:54:38.628Z,981.1
2018-01-05T02:55:41.147Z,981.1
2018-01-05T02:56:43.631Z,981.1
2018-01-05T02:57:46.430Z,981.1
2018-01-05T02:58:49.206Z,981.1
2018-01-05T02:59:51.703Z,981.1
2018-01-05T03:00:54.199Z,981.1
2018-01-05T03:01:56.700Z,981.1
2018-01-05T03:02:59.470Z,981.2
2018-01-05T03:04:01.983Z,981.2
2018-01-05T03:05:04.477Z,981.2
2018-01-05T03:06:06.968Z,981.1
2018-01-05T03:07:09.747Z,981.2
2018-01-05T03:08:12.251Z,980.9
2018-01-05T03:09:15.034Z,981.1
2018-01-05T03:10:17.516Z,981.2
2018-01-05T03:11:20.018Z,981.1
2018-01-05T03:12:22.510Z,981.1
2018-01-05T03:13:25.008Z,981.1
2018-01-05T03:14:27.806Z,981.2
2018-01-05T03:15:30.581Z,981.2
2018-01-05T03:16:33.173Z,981.1
2018-01-05T03:17:35.687Z,981
2018-01-05T03:18:38.461Z,981
2018-01-05T03:19:40.960Z,981
2018-01-05T03:20:43.752Z,981.3
2018-01-05T03:21:46.238Z,981
2018-01-05T03:22:48.736Z,981.1
2018-01-05T03:23:51.233Z,981.1
2018-01-05T03:24:54.014Z,981.1
2018-01-05T03:25:56.799Z,981.3
2018-01-05T03:26:59.301Z,981.1
2018-01-05T03:28:01.793Z,981.2
2018-01-05T03:29:04.296Z,981.2
2018-01-05T03:30:06.798Z,981.2
2018-01-05T03:31:09.592Z,981.2
2018-01-05T03:32:12.099Z,981
2018-01-05T03:33:14.599Z,981.2
2018-01-05T03:34:17.083Z,981.2
2018-01-05T03:35:19.860Z,981.3
2018-01-05T03:36:22.661Z,981.1
2018-01-05T03:37:25.154Z,981.1
2018-01-05T03:38:27.927Z,981.1
2018-01-05T03:39:30.422Z,981.1
2018-01-05T03:40:32.919Z,981.1
2018-01-05T03:41:35.418Z,981.2
2018-01-05T03:42:37.917Z,981.1
2018-01-05T03:43:40.389Z,981.1
2018-01-05T03:44:42.887Z,981.1
2018-01-05T03:45:45.688Z,981.1
2018-01-05T03:46:48.181Z,981.2
2018-01-05T03:47:50.680Z,981.3
2018-01-05T03:48:53.178Z,981.2
2018-01-05T03:49:55.960Z,981.2
2018-01-05T03:50:58.453Z,981.1
2018-01-05T03:52:00.958Z,981.3
2018-01-05T03:53:03.437Z,981.2
2018-01-05T03:54:05.940Z,981.3
2018-01-05T03:55:08.723Z,981.2
2018-01-05T03:56:11.214Z,981.2
2018-01-05T03:57:13.711Z,981.2
2018-01-05T03:58:16.200Z,981.2
2018-01-05T03:59:18.690Z,981.2
2018-01-05T04:00:21.193Z,981.2
2018-01-05T04:01:23.968Z,981.3
2018-01-05T04:02:26.469Z,981
2018-01-05T04:03:29.242Z,981.2
2018-01-05T04:04:31.742Z,981.2
2018-01-05T04:05:34.234Z,981.2
2018-01-05T04:06:36.736Z,981.2
2018-01-05T04:07:39.231Z,981.1
2018-01-05T04:08:42.605Z,981.2
2018-01-05T04:09:45.088Z,981.2
2018-01-05T04:10:47.587Z,981.2
2018-01-05T04:11:50.083Z,981.4
2018-01-05T04:12:52.580Z,981.3
2018-01-05T04:13:55.069Z,981.3
2018-01-05T04:14:57.566Z,981.2
2018-01-05T04:16:00.049Z,981.4
2018-01-05T04:17:02.857Z,981.3
2018-01-05T04:18:05.334Z,981.3
2018-01-05T04:19:07.849Z,981.3
2018-01-05T04:20:10.340Z,981.2
2018-01-05T04:21:12.830Z,981.3
2018-01-05T04:22:15.330Z,981.3
2018-01-05T04:23:17.825Z,981.3
2018-01-05T04:24:20.322Z,981.2
2018-01-05T04:25:22.833Z,981.2
2018-01-05T04:26:25.314Z,981.3
2018-01-05T04:27:27.803Z,981.4
2018-01-05T04:28:30.305Z,981.1
2018-01-05T04:29:32.795Z,981.2
2018-01-05T04:30:35.285Z,981.3
2018-01-05T04:31:37.787Z,981.3
2018-01-05T04:32:40.274Z,981.2
2018-01-05T04:33:42.775Z,981.3
2018-01-05T04:34:45.273Z,981.2
2018-01-05T04:35:47.773Z,981.3
2018-01-05T04:36:50.278Z,981.3
2018-01-05T04:37:52.771Z,981.4
2018-01-05T04:38:55.262Z,981.3
2018-01-05T04:39:57.759Z,981.4
2018-01-05T04:41:00.254Z,981.3
2018-01-05T04:42:02.744Z,981.3
2018-01-05T04:43:05.249Z,981.4
2018-01-05T04:44:07.740Z,981.3
2018-01-05T04:45:10.552Z,981.5
2018-01-05T04:46:13.061Z,981.4
2018-01-05T04:47:15.556Z,981.4
2018-01-05T04:48:18.057Z,981.5
2018-01-05T04:49:20.556Z,981.3
2018-01-05T04:50:23.046Z,981.3
2018-01-05T04:51:25.830Z,981.4
2018-01-05T04:52:28.624Z,981.4
2018-01-05T04:53:31.156Z,981.5
2018-01-05T04:54:33.663Z,981.4
2018-01-05T04:55:36.164Z,981.3
2018-01-05T04:56:38.962Z,981.4
2018-01-05T04:57:42.469Z,981.4
2018-01-05T04:58:44.988Z,981.6
2018-01-05T04:59:47.464Z,981.6
2018-01-05T05:00:49.957Z,981.5
2018-01-05T05:01:52.475Z,981.7
2018-01-05T05:02:54.958Z,981.6
2018-01-05T05:03:57.460Z,981.6
2018-01-05T05:04:59.946Z,981.6
2018-01-05T05:06:02.456Z,981.6
2018-01-05T05:07:04.927Z,981.6
2018-01-05T05:08:07.713Z,981.7
2018-01-05T05:09:10.212Z,981.6
2018-01-05T05:10:12.702Z,981.6
2018-01-05T05:11:15.201Z,981.6
2018-01-05T05:12:17.696Z,981.7
2018-01-05T05:13:20.198Z,981.7
2018-01-05T05:14:22.744Z,981.8
2018-01-05T05:15:26.397Z,981.8
2018-01-05T05:16:28.911Z,981.8
2018-01-05T05:17:32.250Z,981.6
2018-01-05T05:18:34.931Z,981.7
2018-01-05T05:19:37.431Z,981.6
2018-01-05T05:20:39.929Z,981.7
2018-01-05T05:21:42.418Z,981.7
2018-01-05T05:22:45.210Z,981.7
2018-01-05T05:23:48.400Z,981.6
2018-01-05T05:24:50.929Z,981.6
2018-01-05T05:25:53.447Z,981.7
2018-01-05T05:26:56.229Z,981.7
2018-01-05T05:27:58.729Z,981.8
2018-01-05T05:29:01.224Z,981.7
2018-01-05T05:30:04.311Z,981.6
2018-01-05T05:31:06.830Z,981.7
2018-01-05T05:32:09.684Z,981.6
2018-01-05T05:33:12.220Z,981.6
2018-01-05T05:34:14.708Z,981.6
2018-01-05T05:35:17.209Z,981.6
2018-01-05T05:36:19.706Z,981.5
2018-01-05T05:37:22.218Z,981.5
2018-01-05T05:38:24.719Z,981.6
2018-01-05T05:39:27.230Z,981.6
2018-01-05T05:40:29.713Z,981.6
2018-01-05T05:41:32.501Z,981.6
2018-01-05T05:42:35.293Z,981.6
2018-01-05T05:43:37.784Z,981.7
2018-01-05T05:44:40.274Z,981.7
2018-01-05T05:45:43.051Z,981.8
2018-01-05T05:46:45.543Z,981.7
2018-01-05T05:47:48.064Z,981.7
2018-01-05T05:48:50.855Z,981.7
2018-01-05T05:49:53.348Z,981.8
2018-01-05T05:50:56.150Z,981.8
2018-01-05T05:51:58.644Z,982
2018-01-05T05:53:01.137Z,981.9
2018-01-05T05:54:03.640Z,981.9
2018-01-05T05:55:06.131Z,982
2018-01-05T05:56:08.621Z,981.8
2018-01-05T05:57:11.127Z,982.2
2018-01-05T05:58:13.620Z,982
2018-01-05T05:59:16.112Z,982.1
2018-01-05T06:00:18.603Z,982
2018-01-05T06:01:21.101Z,982.1
2018-01-05T06:02:23.587Z,982
2018-01-05T06:03:26.652Z,982.1
2018-01-05T06:04:29.165Z,982.1
2018-01-05T06:05:31.663Z,982.1
2018-01-05T06:06:34.143Z,982.1
2018-01-05T06:07:36.650Z,982.1
2018-01-05T06:08:39.143Z,982.1
2018-01-05T06:09:41.640Z,982.1
2018-01-05T06:10:44.141Z,982.1
2018-01-05T06:11:46.625Z,982.1
2018-01-05T06:12:49.410Z,982.1
2018-01-05T06:13:52.202Z,982.2
2018-01-05T06:14:54.688Z,982.1
2018-01-05T06:15:57.188Z,982.2
2018-01-05T06:16:59.687Z,982.2
2018-01-05T06:18:02.174Z,982.2
2018-01-05T06:19:04.965Z,982.2
2018-01-05T06:20:07.750Z,982.2
2018-01-05T06:21:10.233Z,982.2
2018-01-05T06:22:12.732Z,982.3
2018-01-05T06:23:15.225Z,982.3
2018-01-05T06:24:17.708Z,982.3
2018-01-05T06:25:20.218Z,982.3
2018-01-05T06:26:22.700Z,982.3
2018-01-05T06:27:25.202Z,982.3
2018-01-05T06:28:27.705Z,982.3
2018-01-05T06:29:30.206Z,982.3
2018-01-05T06:30:32.984Z,982.3
2018-01-05T06:31:35.765Z,982.2
2018-01-05T06:32:38.264Z,982.2
2018-01-05T06:33:40.747Z,982.3
2018-01-05T06:34:43.253Z,982.4
2018-01-05T06:35:45.741Z,982.4
2018-01-05T06:36:48.530Z,982.4
2018-01-05T06:37:51.036Z,982.5
2018-01-05T06:38:53.818Z,982.5
2018-01-05T06:39:56.319Z,982.3
2018-01-05T06:40:58.824Z,982.3
2018-01-05T06:42:01.310Z,982.4
2018-01-05T06:43:03.808Z,982.5
2018-01-05T06:44:06.593Z,982.4
2018-01-05T06:45:09.094Z,982.3
2018-01-05T06:46:12.158Z,982.5
2018-01-05T06:47:14.647Z,982.4
2018-01-05T06:48:17.136Z,982.5
2018-01-05T06:49:19.931Z,982.5
2018-01-05T06:50:22.423Z,982.6
2018-01-05T06:51:24.926Z,982.5
2018-01-05T06:52:27.425Z,982.5
2018-01-05T06:53:29.918Z,982.5
2018-01-05T06:54:32.703Z,982.6
2018-01-05T06:55:35.207Z,982.6
2018-01-05T06:56:38.015Z,982.5
2018-01-05T06:57:40.511Z,982.5
2018-01-05T06:58:43.007Z,982.6
2018-01-05T06:59:45.498Z,982.4
2018-01-05T07:00:47.987Z,982.5
2018-01-05T07:01:50.487Z,982.5
2018-01-05T07:02:52.975Z,982.4
2018-01-05T07:03:55.471Z,982.5
2018-01-05T07:04:57.958Z,982.4
2018-01-05T07:06:00.464Z,982.5
2018-01-05T07:07:02.954Z,982.5
2018-01-05T07:08:05.441Z,982.5
2018-01-05T07:09:07.939Z,982.3
2018-01-05T07:10:10.435Z,982.5
2018-01-05T07:11:13.541Z,982.5
2018-01-05T07:12:16.039Z,982.5
2018-01-05T07:13:18.517Z,982.5
2018-01-05T07:14:21.014Z,982.6
2018-01-05T07:15:23.522Z,982.5
2018-01-05T07:16:26.022Z,982.5
2018-01-05T07:17:28.512Z,982.5
2018-01-05T07:18:31.018Z,982.5
2018-01-05T07:19:34.095Z,982.5
2018-01-05T07:20:36.912Z,982.6
2018-01-05T07:21:39.404Z,982.5
2018-01-05T07:22:41.893Z,982.5
2018-01-05T07:23:44.387Z,982.5
2018-01-05T07:24:46.876Z,982.5
2018-01-05T07:25:49.666Z,982.5
2018-01-05T07:26:52.455Z,982.5
2018-01-05T07:27:54.935Z,982.6
2018-01-05T07:28:57.428Z,982.6
2018-01-05T07:29:59.930Z,982.6
2018-01-05T07:31:02.440Z,982.5
2018-01-05T07:32:04.924Z,982.6
2018-01-05T07:33:07.420Z,982.7
2018-01-05T07:34:09.942Z,982.7
2018-01-05T07:35:12.406Z,982.7
2018-01-05T07:36:14.897Z,982.6
2018-01-05T07:37:17.391Z,982.6
2018-01-05T07:38:19.865Z,982.7
2018-01-05T07:39:22.382Z,982.8
2018-01-05T07:40:25.464Z,982.6
2018-01-05T07:41:28.019Z,982.6
2018-01-05T07:42:30.598Z,982.7
2018-01-05T07:43:33.102Z,982.6
2018-01-05T07:44:35.599Z,982.7
2018-01-05T07:45:38.116Z,982.6
2018-01-05T07:46:40.595Z,982.7
2018-01-05T07:47:43.097Z,982.6
2018-01-05T07:48:45.591Z,982.7
2018-01-05T07:49:48.089Z,982.7
2018-01-05T07:50:50.631Z,982.7
2018-01-05T07:51:53.138Z,982.6
2018-01-05T07:52:55.624Z,982.7
2018-01-05T07:53:58.132Z,982.7
2018-01-05T07:55:00.915Z,982.7
2018-01-05T07:56:03.403Z,982.7
2018-01-05T07:57:05.901Z,982.6
2018-01-05T07:58:08.400Z,982.6
2018-01-05T07:59:10.893Z,982.7
2018-01-05T08:00:13.392Z,982.7
2018-01-05T08:01:15.904Z,982.7
2018-01-05T08:02:18.405Z,982.8
2018-01-05T08:03:20.889Z,982.7
2018-01-05T08:04:23.388Z,982.7
2018-01-05T08:05:26.197Z,982.7
2018-01-05T08:06:28.980Z,982.8
2018-01-05T08:07:31.472Z,982.7
2018-01-05T08:08:33.975Z,982.7
2018-01-05T08:09:36.765Z,982.8
2018-01-05T08:10:39.278Z,982.7
2018-01-05T08:11:42.069Z,982.8
2018-01-05T08:12:44.543Z,982.7
2018-01-05T08:13:47.053Z,982.9
2018-01-05T08:14:49.548Z,982.6
2018-01-05T08:15:52.052Z,982.7
2018-01-05T08:16:54.558Z,982.8
2018-01-05T08:17:57.037Z,983
2018-01-05T08:18:59.529Z,982.9
2018-01-05T08:20:02.048Z,982.9
2018-01-05T08:21:05.120Z,983
2018-01-05T08:22:07.621Z,982.9
2018-01-05T08:23:10.117Z,982.8
2018-01-05T08:24:12.610Z,982.9
2018-01-05T08:25:15.407Z,982.9
2018-01-05T08:26:18.208Z,983
2018-01-05T08:27:20.692Z,982.9
2018-01-05T08:28:24.119Z,983.1
2018-01-05T08:29:26.619Z,983
2018-01-05T08:30:29.129Z,983
2018-01-05T08:31:31.642Z,983
2018-01-05T08:32:34.435Z,983
2018-01-05T08:33:36.934Z,983
2018-01-05T08:34:39.495Z,983
2018-01-05T08:35:42.017Z,983.2
2018-01-05T08:36:44.498Z,983.2
2018-01-05T08:37:47.016Z,983.1
2018-01-05T08:38:49.498Z,983
2018-01-05T08:39:52.578Z,983.2
2018-01-05T08:40:55.369Z,983.1
2018-01-05T08:41:58.152Z,983.2
2018-01-05T08:43:00.645Z,983.2
2018-01-05T08:44:03.445Z,983.2
2018-01-05T08:45:05.930Z,983.2
2018-01-05T08:46:08.433Z,983.2
2018-01-05T08:47:10.932Z,983.2
2018-01-05T08:48:13.424Z,983.2
2018-01-05T08:49:15.922Z,983.2
2018-01-05T08:50:18.420Z,983.2
2018-01-05T08:51:20.909Z,983.3
2018-01-05T08:52:23.709Z,983.2
2018-01-05T08:53:26.189Z,983.3
2018-01-05T08:54:28.984Z,983.2
2018-01-05T08:55:31.478Z,983.3
2018-01-05T08:56:33.973Z,983.3
2018-01-05T08:57:36.761Z,983.4
2018-01-05T08:58:39.266Z,983.4
2018-01-05T08:59:42.053Z,983.3
2018-01-05T09:00:44.542Z,983.3
2018-01-05T09:01:47.026Z,983.3
2018-01-05T09:02:49.543Z,983.3
2018-01-05T09:03:52.038Z,983.4
2018-01-05T09:04:54.817Z,983.3
2018-01-05T09:05:57.604Z,983.3
2018-01-05T09:07:00.387Z,983.4
2018-01-05T09:08:02.883Z,983.3
2018-01-05T09:09:05.390Z,983.5
2018-01-05T09:10:07.904Z,983.5
2018-01-05T09:11:10.368Z,983.4
2018-01-05T09:12:12.871Z,983.4
2018-01-05T09:13:15.366Z,983.4
2018-01-05T09:14:17.868Z,983.5
2018-01-05T09:15:20.355Z,983.6
2018-01-05T09:16:23.138Z,983.5
2018-01-05T09:17:25.633Z,983.5
2018-01-05T09:18:28.127Z,983.5
2018-01-05T09:19:30.612Z,983.5
2018-01-05T09:20:33.110Z,983.5
2018-01-05T09:21:35.609Z,983.6
2018-01-05T09:22:38.103Z,983.6
2018-01-05T09:23:40.612Z,983.6
2018-01-05T09:24:43.160Z,983.6
2018-01-05T09:25:45.667Z,983.6
2018-01-05T09:26:48.802Z,983.6
2018-01-05T09:27:52.016Z,983.6
2018-01-05T09:28:54.514Z,983.6
2018-01-05T09:29:57.639Z,983.7
2018-01-05T09:31:00.419Z,983.5
2018-01-05T09:32:02.917Z,983.7
2018-01-05T09:33:05.412Z,983.7
2018-01-05T09:34:07.925Z,983.6
2018-01-05T09:35:10.417Z,983.7
2018-01-05T09:36:12.908Z,983.7
2018-01-05T09:37:16.285Z,983.7
2018-01-05T09:38:18.777Z,983.8
2018-01-05T09:39:21.280Z,983.7
2018-01-05T09:40:24.059Z,983.8
2018-01-05T09:41:26.538Z,983.9
2018-01-05T09:42:29.327Z,983.8
2018-01-05T09:43:31.818Z,983.9
2018-01-05T09:44:34.311Z,983.8
2018-01-05T09:45:37.384Z,983.9
2018-01-05T09:46:39.877Z,983.9
2018-01-05T09:47:42.369Z,983.8
2018-01-05T09:48:44.871Z,984
2018-01-05T09:49:47.359Z,983.9
2018-01-05T09:50:49.861Z,983.9
2018-01-05T09:51:52.365Z,983.8
2018-01-05T09:52:55.143Z,984
2018-01-05T09:53:58.050Z,984
2018-01-05T09:55:00.957Z,984
2018-01-05T09:56:03.719Z,984
2018-01-05T09:57:06.737Z,984
2018-01-05T09:58:09.597Z,984.1
2018-01-05T09:59:12.102Z,984
2018-01-05T10:00:14.578Z,984
2018-01-05T10:01:17.077Z,984
2018-01-05T10:02:19.877Z,984
2018-01-05T10:03:22.656Z,983.8
2018-01-05T10:04:25.157Z,983.9
2018-01-05T10:05:27.648Z,983.9
2018-01-05T10:06:30.430Z,983.9
2018-01-05T10:07:32.932Z,984
2018-01-05T10:08:35.428Z,983.8
2018-01-05T10:09:38.198Z,983.8
2018-01-05T10:10:40.697Z,984
2018-01-05T10:11:43.197Z,983.9
2018-01-05T10:12:45.686Z,983.9
2018-01-05T10:13:48.200Z,983.8
2018-01-05T10:14:50.677Z,983.9
2018-01-05T10:15:53.165Z,983.9
2018-01-05T10:16:55.671Z,984
2018-01-05T10:17:58.164Z,984
2018-01-05T10:19:00.950Z,984
2018-01-05T10:20:04.021Z,984
2018-01-05T10:21:06.567Z,984.2
2018-01-05T10:22:09.361Z,984.2
2018-01-05T10:23:11.896Z,984.1
2018-01-05T10:24:17.954Z,984
2018-01-05T10:25:20.456Z,984.1
2018-01-05T10:26:22.953Z,984.2
2018-01-05T10:27:25.450Z,984.2
2018-01-05T10:28:27.951Z,984.2
2018-01-05T10:29:30.449Z,984.1
2018-01-05T10:30:32.949Z,984.1
2018-01-05T10:31:35.426Z,984.2
2018-01-05T10:32:37.947Z,984.2
2018-01-05T10:33:40.737Z,984.3
2018-01-05T10:34:43.224Z,984.3
2018-01-05T10:35:46.018Z,984.3
2018-01-05T10:36:48.805Z,984.3
2018-01-05T10:37:51.293Z,984.4
2018-01-05T10:38:53.796Z,984.3
2018-01-05T10:39:56.293Z,984.5
2018-01-05T10:40:58.783Z,984.3
2018-01-05T10:42:01.286Z,984.4
2018-01-05T10:43:03.781Z,984.5
2018-01-05T10:44:06.565Z,984.5
2018-01-05T10:45:09.068Z,984.6
2018-01-05T10:46:11.559Z,984.7
2018-01-05T10:47:14.059Z,984.6
2018-01-05T10:48:16.564Z,984.6
2018-01-05T10:49:19.345Z,984.7
2018-01-05T10:50:21.842Z,984.8
2018-01-05T10:51:24.345Z,984.6
2018-01-05T10:52:26.827Z,984.6
2018-01-05T10:53:29.327Z,984.7
2018-01-05T10:54:31.823Z,984.6
2018-01-05T10:55:34.323Z,984.7
2018-01-05T10:56:36.813Z,984.7
2018-01-05T10:57:39.311Z,984.8
2018-01-05T10:58:41.812Z,984.8
2018-01-05T10:59:44.300Z,984.8
2018-01-05T11:00:46.802Z,984.8
2018-01-05T11:01:49.573Z,984.9
2018-01-05T11:02:52.074Z,984.8
2018-01-05T11:03:54.565Z,984.9
2018-01-05T11:04:57.078Z,984.9
2018-01-05T11:05:59.841Z,984.8
2018-01-05T11:07:02.348Z,984.9
2018-01-05T11:08:04.842Z,984.8
2018-01-05T11:09:07.646Z,984.9
2018-01-05T11:10:10.140Z,984.8
2018-01-05T11:11:12.640Z,984.9
2018-01-05T11:12:15.129Z,985
2018-01-05T11:13:17.634Z,985
2018-01-05T11:14:20.124Z,985
2018-01-05T11:15:22.629Z,985.1
2018-01-05T11:16:25.137Z,985.2
2018-01-05T11:17:27.628Z,985.1
2018-01-05T11:18:30.122Z,985.3
2018-01-05T11:19:32.631Z,985.2
2018-01-05T11:20:35.123Z,985.3
2018-01-05T11:21:37.620Z,985.3
2018-01-05T11:22:40.120Z,985.3
2018-01-05T11:23:42.593Z,985.4
2018-01-05T11:24:45.101Z,985.3
2018-01-05T11:25:47.595Z,985.2
2018-01-05T11:26:50.084Z,985.3
2018-01-05T11:27:52.865Z,985.4
2018-01-05T11:28:55.659Z,985.3
2018-01-05T11:29:58.731Z,985.4
2018-01-05T11:31:01.224Z,985.5
2018-01-05T11:32:03.736Z,985.5
2018-01-05T11:33:06.240Z,985.4
2018-01-05T11:34:08.729Z,985.5
2018-01-05T11:35:11.234Z,985.5
2018-01-05T11:36:13.727Z,985.7
2018-01-05T11:37:16.234Z,985.6
2018-01-05T11:38:18.728Z,985.7
2018-01-05T11:39:21.234Z,985.7
2018-01-05T11:40:23.720Z,985.6
2018-01-05T11:41:26.806Z,985.6
2018-01-05T11:42:29.304Z,985.7
2018-01-05T11:43:31.792Z,985.7
2018-01-05T11:44:34.582Z,985.7
2018-01-05T11:45:37.070Z,985.7
2018-01-05T11:46:39.563Z,985.7
2018-01-05T11:47:42.069Z,985.8
2018-01-05T11:48:44.563Z,985.8
2018-01-05T11:49:47.045Z,985.8
2018-01-05T11:50:49.556Z,985.8
2018-01-05T11:51:52.339Z,985.9
2018-01-05T11:52:54.829Z,986
2018-01-05T11:53:57.334Z,985.9
2018-01-05T11:54:59.832Z,985.9
2018-01-05T11:56:02.625Z,985.9
2018-01-05T11:57:05.142Z,986
2018-01-05T11:58:07.628Z,986
2018-01-05T11:59:10.414Z,986
2018-01-05T12:00:13.198Z,986
2018-01-05T12:01:15.696Z,986.1
2018-01-05T12:02:18.181Z,986.1
2018-01-05T12:03:20.675Z,986.2
2018-01-05T12:04:23.199Z,986.2
2018-01-05T12:05:26.264Z,986.1
2018-01-05T12:06:29.041Z,986.2
2018-01-05T12:07:31.534Z,986.3
2018-01-05T12:08:34.029Z,986.3
2018-01-05T12:09:36.528Z,986.3
2018-01-05T12:10:39.314Z,986.3
2018-01-05T12:11:41.798Z,986.4
2018-01-05T12:12:44.298Z,986.3
2018-01-05T12:13:46.796Z,986.3
2018-01-05T12:14:49.287Z,986.3
2018-01-05T12:15:51.803Z,986.3
2018-01-05T12:16:54.450Z,986.3
2018-01-05T12:17:56.947Z,986.4
2018-01-05T12:18:59.737Z,986.4
2018-01-05T12:20:02.229Z,986.5
2018-01-05T12:21:04.733Z,986.5
2018-01-05T12:22:07.237Z,986.6
2018-01-05T12:23:09.711Z,986.5
2018-01-05T12:24:12.203Z,986.6
2018-01-05T12:25:14.706Z,986.6
2018-01-05T12:26:17.201Z,986.6
2018-01-05T12:27:20.014Z,986.5
2018-01-05T12:28:22.496Z,986.5
2018-01-05T12:29:25.286Z,986.6
2018-01-05T12:30:28.087Z,986.7
2018-01-05T12:31:30.578Z,986.7
2018-01-05T12:32:33.074Z,986.7
2018-01-05T12:33:35.572Z,986.8
2018-01-05T12:34:38.083Z,986.8
2018-01-05T12:35:40.585Z,986.8
2018-01-05T12:36:43.087Z,986.9
2018-01-05T12:37:45.564Z,986.8
2018-01-05T12:38:48.064Z,986.8
2018-01-05T12:39:50.562Z,986.9
2018-01-05T12:40:53.056Z,987.1
2018-01-05T12:41:55.546Z,987
2018-01-05T12:42:58.049Z,987.1
2018-01-05T12:44:00.539Z,987.2
2018-01-05T12:45:03.041Z,987.1
2018-01-05T12:46:05.536Z,987
2018-01-05T12:47:08.027Z,987
2018-01-05T12:48:10.519Z,987
2018-01-05T12:49:13.034Z,987
2018-01-05T12:50:15.526Z,987
2018-01-05T12:51:18.310Z,987.1
2018-01-05T12:52:20.805Z,987
2018-01-05T12:53:23.299Z,987
2018-01-05T12:54:25.789Z,987.2
2018-01-05T12:55:28.295Z,987.1
2018-01-05T12:56:30.774Z,987.1
2018-01-05T12:57:33.324Z,987.1
2018-01-05T12:58:35.778Z,987.2
2018-01-05T12:59:38.432Z,987.3
2018-01-05T13:00:40.926Z,987.3
2018-01-05T13:01:43.434Z,987.4
2018-01-05T13:02:45.926Z,987.4
2018-01-05T13:03:48.738Z,987.4
2018-01-05T13:04:51.228Z,987.4
2018-01-05T13:05:54.016Z,987.4
2018-01-05T13:06:56.645Z,987.5
2018-01-05T13:07:59.449Z,987.4
2018-01-05T13:09:01.941Z,987.4
2018-01-05T13:10:04.751Z,987.4
2018-01-05T13:11:07.259Z,987.4
2018-01-05T13:12:09.741Z,987.5
2018-01-05T13:13:12.595Z,987.5
2018-01-05T13:14:15.092Z,987.5
2018-01-05T13:15:17.582Z,987.5
2018-01-05T13:16:20.372Z,987.6
2018-01-05T13:17:22.867Z,987.6
2018-01-05T13:18:25.651Z,987.6
2018-01-05T13:19:28.466Z,987.6
2018-01-05T13:20:30.959Z,987.7
2018-01-05T13:21:33.451Z,987.6
2018-01-05T13:22:35.959Z,987.7
2018-01-05T13:23:38.449Z,987.6
2018-01-05T13:24:40.949Z,987.7
2018-01-05T13:25:43.452Z,987.7
2018-01-05T13:26:45.950Z,987.7
2018-01-05T13:27:48.453Z,987.7
2018-01-05T13:28:51.240Z,987.7
2018-01-05T13:29:53.747Z,987.8
2018-01-05T13:30:56.242Z,987.7